Weather at Balmaceda Airport

Public forecast

Using degrees Celsius for public forecast. Weather courtesy of forecast.io.

Current aviation weather report (METAR) for Balmaceda Airport

Report is more than 2 hours old.

2024/05/29 04:00 (retrieved 4 hours ago)

SCBA 290400Z AUTO 30034KT 9999 -RA FEW020/// OVC037/// 05/02 Q0994

Aviation forecast (TAF) for Balmaceda Airport

2024/05/29 06:33 (retrieved 2 hours ago)

TAF SCBA 290450Z 2906/3006 29035G45KT 9999 FEW020 BKN040 TN04/2907Z TX06/2918Z BECMG 2910/2912 29020G30KT TEMPO 2912/2920 8000 -SHRA SCT015 BKN030 BECMG 2921/2923 29015KT SCT045